Pagrindinis puslapis
METAR-TAF:

METAR-TAF

Oro uostai :

Kamagvėjus, Kuba

platuma: 21-25N, ilguma: 077-51W, Aukštis: 122 m

Dabartinis oras

Ataskaita buvo paskelbta 55 minutes, ne 21:50 UTC
Vėjas 14 kt iš Šiaurės Rytų
Temperatūra 31°C
Drėgmė 59%
Slėgis 1014 hPa
Matomumas: 9000 m
Mažai debesys ne aukštis 2000 ft, aukštai iškilę kamuoliniai debesys.
Išsisklaidę debesys ne aukštis 2500 ft

METAR: MUCM 022150Z 04014KT 9000 FEW020TCU SCT025 31/22 Q1014

Laikas: 18:45 (22:45 UTC)

Prognozė

Ataskaita buvo paskelbta 5 valandos ir 45 minutes, ne 17:00 UTC
Prognozė galioja nuo 02 metu 18 UTC su 03 metu 18 UTC
Vėjas 12 kt iš Rytų/Šiaurės Rytų
Matomumas: 9000 m
Išsisklaidę debesys ne aukštis 2000 ft
Laikinai
nuo 02 metu 19 UTC su 02 metu 24 UTC
Mažai debesys ne aukštis 1800 ft, Liūtiniai kamuoliniai debesys.
Su prošvaistėmis ne aukštis 2000 ft
Tapsmas
nuo 03 metu 01 UTC su 03 metu 03 UTC
Vėjas 6 kt iš Šiaurės Rytų

TAF: MUCM 021700Z 0218/0318 07012KT 9000 SCT020 TEMPO 0219/0224 FEW018CB BKN020 BECMG 0301/0303 05006KT

Orai ataskaitas ir orų prognozės (METAR, TAF).

turimą stotys yra geltonos ir raudonos taškus žemėlapyje.

Perkelti pele per norėdami pamatyti stoties vardą.

Tada spustelėkite, norėdami matyti oro stebėjimo ir prognozės.

Norėdami pakeisti žemėlapį: spustelėkite ant žalios mygtukų su juodo kryžiaus žemyn,; žalią mygtuką su brūkšneliu, jei norite nutolinti; arba žalių rodyklių gretimoms žemėlapius.


METAR-TAF: